Navin Harrier — V7LK4 — position and weather

sailwx.info

Track history (hours):
 
Tides and Currents Weather Stations Pressure Air Temp Water Temp Dewpoint Dewpoint Depression Visibility Wind Speed Wind Dir Waves Ship Positions

Navin Harrier

Last reported at 2018-Apr-19 15:50 UTC. Time now 2018-Apr-26 19:00 UTC.
Position N 31°37' E 031°45'.

Length 113 m; draft 4.4 m.

Type: Cargo ship. MMSI: 538090483.

Date/timePositionNaut miles runAvg speedWind from/ knotsBaromVisibWave heightAir tempDewpointWater temp
2018-Apr-19 15:50N 31°37' E 031°45'0 0.0
2018-Apr-19 11:57N 31°37' E 031°45'0 0.1
2018-Apr-19 11:30N 31°37' E 031°45'12 3.3
2018-Apr-19 07:51N 31°44' E 031°57'21 7.3
2018-Apr-19 04:56N 31°48' E 032°21'3 7.8
2018-Apr-19 04:30N 31°49' E 032°25'4 7.6
2018-Apr-19 04:01N 31°50' E 032°29'21 7.0
2018-Apr-19 01:05N 31°55' E 032°52'1 7.2
2018-Apr-19 01:01N 31°55' E 032°53'4 7.4
2018-Apr-19 00:31N 31°56' E 032°57'4 7.5
2018-Apr-19 00:00N 31°57' E 033°02'8 9.6
2018-Apr-18 23:14N 31°59' E 033°10'311.5
2018-Apr-18 23:00N 31°59' E 033°13'510.8
2018-Apr-18 22:30N 32°01' E 033°19'510.7
2018-Apr-18 22:00N 32°02' E 033°25'511.0
2018-Apr-18 21:31N 32°04' E 033°32'610.6
2018-Apr-18 20:58N 32°05' E 033°38'510.5
2018-Apr-18 20:30N 32°07' E 033°44'510.8
2018-Apr-18 20:00N 32°08' E 033°50'611.2
2018-Apr-18 19:31N 32°06' E 033°56'611.3
2018-Apr-18 19:00N 32°03' E 034°02'611.5
2018-Apr-18 18:31N 32°01' E 034°08'611.5
2018-Apr-18 18:00N 31°58' E 034°14'611.1
2018-Apr-18 17:30N 31°56' E 034°20'611.0
2018-Apr-18 17:00N 31°53' E 034°26'511.0
2018-Apr-18 16:30N 31°52' E 034°32'510.5
2018-Apr-18 16:00N 31°51' E 034°38'1 2.2
2018-Apr-18 15:30N 31°50' E 034°39'0 0.0
2018-Apr-18 14:57N 31°50' E 034°39'0 0.0
2018-Apr-18 14:27N 31°50' E 034°39'0 0.0
2018-Apr-18 14:00N 31°50' E 034°39'0 0.0
2018-Apr-18 13:30N 31°50' E 034°39'0 0.0
2018-Apr-18 13:00N 31°50' E 034°39'0 0.0
2018-Apr-18 12:30N 31°50' E 034°39'0 0.0
2018-Apr-18 11:57N 31°50' E 034°39'0 0.0
2018-Apr-18 11:27N 31°50' E 034°39'0 0.0
2018-Apr-18 11:00N 31°50' E 034°39'0 0.0
2018-Apr-18 10:30N 31°50' E 034°39'0 0.0
2018-Apr-18 09:54N 31°50' E 034°39'0 0.0
2018-Apr-18 09:30N 31°50' E 034°39'0 0.0
2018-Apr-18 09:00N 31°50' E 034°39'0 0.0
2018-Apr-18 08:30N 31°50' E 034°39'0 0.0
2018-Apr-18 07:54N 31°50' E 034°39'0 0.0
2018-Apr-18 04:39N 31°50' E 034°39'0 0.0
2018-Apr-17 18:51N 31°50' E 034°39'0 0.0
2018-Apr-17 18:30N 31°50' E 034°39'0 0.0
2018-Apr-17 18:00N 31°50' E 034°39'0 0.0
2018-Apr-17 17:27N 31°50' E 034°39'0 0.0
2018-Apr-17 17:00N 31°50' E 034°39'0 0.0
2018-Apr-17 16:30N 31°50' E 034°39'0 0.0
2018-Apr-17 14:48N 31°50' E 034°39'0 0.0
2018-Apr-17 14:27N 31°50' E 034°39'0 0.0
2018-Apr-17 13:54N 31°50' E 034°39'0 0.0
2018-Apr-17 13:30N 31°50' E 034°39'0 0.0
2018-Apr-17 12:54N 31°50' E 034°39'0 0.0
2018-Apr-17 12:21N 31°50' E 034°39'0 0.0
2018-Apr-17 11:54N 31°50' E 034°39'0 0.0
2018-Apr-17 11:27N 31°50' E 034°39'0 0.0
2018-Apr-17 09:06N 31°50' E 034°39'0 0.0
2018-Apr-17 07:14N 31°50' E 034°39'0 1.4
2018-Apr-17 07:01N 31°50' E 034°38'2 3.2
2018-Apr-17 06:30N 31°52' E 034°38'1 2.6
2018-Apr-17 06:01N 31°51' E 034°37'0 0.5
2018-Apr-17 05:30N 31°51' E 034°36'0 0.0
2018-Apr-17 04:35N 31°51' E 034°36'0 0.0
2018-Apr-17 04:29N 31°51' E 034°36'0 0.0
2018-Apr-17 03:59N 31°51' E 034°36'0 0.0
2018-Apr-17 03:29N 31°51' E 034°36'0 0.0
2018-Apr-16 20:47N 31°51' E 034°36'0 0.0
2018-Apr-16 20:23N 31°51' E 034°36'0 0.0
2018-Apr-15 11:34N 31°51' E 034°37'0 0.0
2018-Apr-15 11:28N 31°51' E 034°37'0 0.0
2018-Apr-15 10:58N 31°51' E 034°37'0 0.0
2018-Apr-15 10:22N 31°51' E 034°37'2 0.1
2018-Apr-14 18:32N 31°49' E 034°36'0 0.1
2018-Apr-14 18:29N 31°49' E 034°36'0 0.0
2018-Apr-14 18:00N 31°49' E 034°36'0 0.0
2018-Apr-14 17:29N 31°49' E 034°36'0 0.0
2018-Apr-14 16:56N 31°49' E 034°36'0 0.0
2018-Apr-14 16:11N 31°49' E 034°36'0 0.0
2018-Apr-14 15:56N 31°49' E 034°36'0 0.0
2018-Apr-14 13:02N 31°49' E 034°36'0 0.0
2018-Apr-14 12:38N 31°49' E 034°36'0 0.0
2018-Apr-14 12:26N 31°49' E 034°36'0 0.0
2018-Apr-14 11:59N 31°49' E 034°36'0 0.0
2018-Apr-14 10:47N 31°49' E 034°36'0 0.0
2018-Apr-14 10:14N 31°49' E 034°36'0 0.0
2018-Apr-14 09:58N 31°49' E 034°36'0 0.0
2018-Apr-13 20:35N 31°49' E 034°36'0 0.0
2018-Apr-13 20:08N 31°49' E 034°36'0 0.0
2018-Apr-13 19:59N 31°49' E 034°36'0 0.0
2018-Apr-13 19:29N 31°49' E 034°36'0 0.0
2018-Apr-13 18:59N 31°49' E 034°36'0 0.0
2018-Apr-13 17:32N 31°49' E 034°36'0 0.0
2018-Apr-13 17:29N 31°49' E 034°36'0 0.0
2018-Apr-13 16:59N 31°49' E 034°36'0 0.0
2018-Apr-13 16:26N 31°49' E 034°36'0 0.0
2018-Apr-13 15:53N 31°49' E 034°36'0 0.0
2018-Apr-13 15:29N 31°49' E 034°36'0 0.0
2018-Apr-13 14:56N 31°49' E 034°36'0 0.0
2018-Apr-13 14:25N 31°49' E 034°36'0 0.0
2018-Apr-13 13:42N 31°49' E 034°36'0 0.0
2018-Apr-13 13:30N 31°49' E 034°36'0 0.0
2018-Apr-13 13:00N 31°49' E 034°36'0 0.0
2018-Apr-13 12:30N 31°49' E 034°36'0 0.0
2018-Apr-13 11:57N 31°49' E 034°36'0 0.0
2018-Apr-13 11:30N 31°49' E 034°36'0 0.0
2018-Apr-13 11:00N 31°49' E 034°36'0 0.0
2018-Apr-13 10:30N 31°49' E 034°36'0 0.0
2018-Apr-13 10:00N 31°49' E 034°36'0 0.0
2018-Apr-13 09:30N 31°49' E 034°36'0 0.0
2018-Apr-13 00:44N 31°49' E 034°36'0 0.0
2018-Apr-13 00:26N 31°49' E 034°36'0 0.0
2018-Apr-12 23:53N 31°49' E 034°36'0 0.0
2018-Apr-12 16:08N 31°49' E 034°36'0 0.0
2018-Apr-12 15:59N 31°49' E 034°36'  
Track history (hours):
 
Tides and Currents Weather Stations Pressure Air Temp Water Temp Dewpoint Dewpoint Depression Visibility Wind Speed Wind Dir Waves Ship Positions

Navin Harrier

Last reported at 2018-Apr-19 15:50 UTC. Time now 2018-Apr-26 19:00 UTC.
Position N 31°37' E 031°45'.

Length 113 m; draft 4.4 m.

Type: Cargo ship. MMSI: 538090483.

Date/timePositionNaut miles runAvg speedWind from/ knotsBaromVisibWave heightAir tempDewpointWater temp
2018-Apr-19 15:50N 31°37' E 031°45'0 0.0
2018-Apr-19 11:57N 31°37' E 031°45'0 0.1
2018-Apr-19 11:30N 31°37' E 031°45'12 3.3
2018-Apr-19 07:51N 31°44' E 031°57'21 7.3
2018-Apr-19 04:56N 31°48' E 032°21'3 7.8
2018-Apr-19 04:30N 31°49' E 032°25'4 7.6
2018-Apr-19 04:01N 31°50' E 032°29'21 7.0
2018-Apr-19 01:05N 31°55' E 032°52'1 7.2
2018-Apr-19 01:01N 31°55' E 032°53'4 7.4
2018-Apr-19 00:31N 31°56' E 032°57'4 7.5
2018-Apr-19 00:00N 31°57' E 033°02'8 9.6
2018-Apr-18 23:14N 31°59' E 033°10'311.5
2018-Apr-18 23:00N 31°59' E 033°13'510.8
2018-Apr-18 22:30N 32°01' E 033°19'510.7
2018-Apr-18 22:00N 32°02' E 033°25'511.0
2018-Apr-18 21:31N 32°04' E 033°32'610.6
2018-Apr-18 20:58N 32°05' E 033°38'510.5
2018-Apr-18 20:30N 32°07' E 033°44'510.8
2018-Apr-18 20:00N 32°08' E 033°50'611.2
2018-Apr-18 19:31N 32°06' E 033°56'611.3
2018-Apr-18 19:00N 32°03' E 034°02'611.5
2018-Apr-18 18:31N 32°01' E 034°08'611.5
2018-Apr-18 18:00N 31°58' E 034°14'611.1
2018-Apr-18 17:30N 31°56' E 034°20'611.0
2018-Apr-18 17:00N 31°53' E 034°26'511.0
2018-Apr-18 16:30N 31°52' E 034°32'510.5
2018-Apr-18 16:00N 31°51' E 034°38'1 2.2
2018-Apr-18 15:30N 31°50' E 034°39'0 0.0
2018-Apr-18 14:57N 31°50' E 034°39'0 0.0
2018-Apr-18 14:27N 31°50' E 034°39'0 0.0
2018-Apr-18 14:00N 31°50' E 034°39'0 0.0
2018-Apr-18 13:30N 31°50' E 034°39'0 0.0
2018-Apr-18 13:00N 31°50' E 034°39'0 0.0
2018-Apr-18 12:30N 31°50' E 034°39'0 0.0
2018-Apr-18 11:57N 31°50' E 034°39'0 0.0
2018-Apr-18 11:27N 31°50' E 034°39'0 0.0
2018-Apr-18 11:00N 31°50' E 034°39'0 0.0
2018-Apr-18 10:30N 31°50' E 034°39'0 0.0
2018-Apr-18 09:54N 31°50' E 034°39'0 0.0
2018-Apr-18 09:30N 31°50' E 034°39'0 0.0
2018-Apr-18 09:00N 31°50' E 034°39'0 0.0
2018-Apr-18 08:30N 31°50' E 034°39'0 0.0
2018-Apr-18 07:54N 31°50' E 034°39'0 0.0
2018-Apr-18 04:39N 31°50' E 034°39'0 0.0
2018-Apr-17 18:51N 31°50' E 034°39'0 0.0
2018-Apr-17 18:30N 31°50' E 034°39'0 0.0
2018-Apr-17 18:00N 31°50' E 034°39'0 0.0
2018-Apr-17 17:27N 31°50' E 034°39'0 0.0
2018-Apr-17 17:00N 31°50' E 034°39'0 0.0
2018-Apr-17 16:30N 31°50' E 034°39'0 0.0
2018-Apr-17 14:48N 31°50' E 034°39'0 0.0
2018-Apr-17 14:27N 31°50' E 034°39'0 0.0
2018-Apr-17 13:54N 31°50' E 034°39'0 0.0
2018-Apr-17 13:30N 31°50' E 034°39'0 0.0
2018-Apr-17 12:54N 31°50' E 034°39'0 0.0
2018-Apr-17 12:21N 31°50' E 034°39'0 0.0
2018-Apr-17 11:54N 31°50' E 034°39'0 0.0
2018-Apr-17 11:27N 31°50' E 034°39'0 0.0
2018-Apr-17 09:06N 31°50' E 034°39'0 0.0
2018-Apr-17 07:14N 31°50' E 034°39'0 1.4
2018-Apr-17 07:01N 31°50' E 034°38'2 3.2
2018-Apr-17 06:30N 31°52' E 034°38'1 2.6
2018-Apr-17 06:01N 31°51' E 034°37'0 0.5
2018-Apr-17 05:30N 31°51' E 034°36'0 0.0
2018-Apr-17 04:35N 31°51' E 034°36'0 0.0
2018-Apr-17 04:29N 31°51' E 034°36'0 0.0
2018-Apr-17 03:59N 31°51' E 034°36'0 0.0
2018-Apr-17 03:29N 31°51' E 034°36'0 0.0
2018-Apr-16 20:47N 31°51' E 034°36'0 0.0
2018-Apr-16 20:23N 31°51' E 034°36'0 0.0
2018-Apr-15 11:34N 31°51' E 034°37'0 0.0
2018-Apr-15 11:28N 31°51' E 034°37'0 0.0
2018-Apr-15 10:58N 31°51' E 034°37'0 0.0
2018-Apr-15 10:22N 31°51' E 034°37'2 0.1
2018-Apr-14 18:32N 31°49' E 034°36'0 0.1
2018-Apr-14 18:29N 31°49' E 034°36'0 0.0
2018-Apr-14 18:00N 31°49' E 034°36'0 0.0
2018-Apr-14 17:29N 31°49' E 034°36'0 0.0
2018-Apr-14 16:56N 31°49' E 034°36'0 0.0
2018-Apr-14 16:11N 31°49' E 034°36'0 0.0
2018-Apr-14 15:56N 31°49' E 034°36'0 0.0
2018-Apr-14 13:02N 31°49' E 034°36'0 0.0
2018-Apr-14 12:38N 31°49' E 034°36'0 0.0
2018-Apr-14 12:26N 31°49' E 034°36'0 0.0
2018-Apr-14 11:59N 31°49' E 034°36'0 0.0
2018-Apr-14 10:47N 31°49' E 034°36'0 0.0
2018-Apr-14 10:14N 31°49' E 034°36'0 0.0
2018-Apr-14 09:58N 31°49' E 034°36'0 0.0
2018-Apr-13 20:35N 31°49' E 034°36'0 0.0
2018-Apr-13 20:08N 31°49' E 034°36'0 0.0
2018-Apr-13 19:59N 31°49' E 034°36'0 0.0
2018-Apr-13 19:29N 31°49' E 034°36'0 0.0
2018-Apr-13 18:59N 31°49' E 034°36'0 0.0
2018-Apr-13 17:32N 31°49' E 034°36'0 0.0
2018-Apr-13 17:29N 31°49' E 034°36'0 0.0
2018-Apr-13 16:59N 31°49' E 034°36'0 0.0
2018-Apr-13 16:26N 31°49' E 034°36'0 0.0
2018-Apr-13 15:53N 31°49' E 034°36'0 0.0
2018-Apr-13 15:29N 31°49' E 034°36'0 0.0
2018-Apr-13 14:56N 31°49' E 034°36'0 0.0
2018-Apr-13 14:25N 31°49' E 034°36'0 0.0
2018-Apr-13 13:42N 31°49' E 034°36'0 0.0
2018-Apr-13 13:30N 31°49' E 034°36'0 0.0
2018-Apr-13 13:00N 31°49' E 034°36'0 0.0
2018-Apr-13 12:30N 31°49' E 034°36'0 0.0
2018-Apr-13 11:57N 31°49' E 034°36'0 0.0
2018-Apr-13 11:30N 31°49' E 034°36'0 0.0
2018-Apr-13 11:00N 31°49' E 034°36'0 0.0
2018-Apr-13 10:30N 31°49' E 034°36'0 0.0
2018-Apr-13 10:00N 31°49' E 034°36'0 0.0
2018-Apr-13 09:30N 31°49' E 034°36'0 0.0
2018-Apr-13 00:44N 31°49' E 034°36'0 0.0
2018-Apr-13 00:26N 31°49' E 034°36'0 0.0
2018-Apr-12 23:53N 31°49' E 034°36'0 0.0
2018-Apr-12 16:08N 31°49' E 034°36'0 0.0
2018-Apr-12 15:59N 31°49' E 034°36'  

Dump ship's entire track history